sensor_id;sensor_type;location;lat;lon;timestamp;pressure;altitude;pressure_sealevel;temperature;humidity
33288;BME280;19657;50.452;30.372;2023-06-04T19:59:28;85678.61;;;-144.73;33.77
33288;BME280;19657;50.452;30.372;2023-06-04T20:02:14;84671.13;;;-144.73;34.18
33288;BME280;19657;50.452;30.372;2023-06-04T20:05:01;84676.66;;;-144.73;34.03
33288;BME280;19657;50.452;30.372;2023-06-04T20:07:48;84660.45;;;-144.73;33.91
33288;BME280;19657;50.452;30.372;2023-06-04T20:12:11;85708.66;;;-144.73;33.86
33288;BME280;19657;50.452;30.372;2023-06-04T20:14:57;84673.11;;;-144.73;33.67
33288;BME280;19657;50.452;30.372;2023-06-04T20:17:44;84677.45;;;-144.73;33.92
33288;BME280;19657;50.452;30.372;2023-06-04T20:20:30;84672.70;;;-144.73;34.12
33288;BME280;19657;50.452;30.372;2023-06-04T20:23:17;84663.22;;;-144.73;34.09
33288;BME280;19657;50.452;30.372;2023-06-04T20:26:04;84680.23;;;-144.73;34.22
33288;BME280;19657;50.452;30.372;2023-06-04T20:28:50;84685.75;;;-144.73;34.23
33288;BME280;19657;50.452;30.372;2023-06-04T20:31:38;84674.29;;;-144.73;34.38
33288;BME280;19657;50.452;30.372;2023-06-04T20:34:24;84677.85;;;-144.73;34.57
33288;BME280;19657;50.452;30.372;2023-06-04T20:37:12;84690.10;;;-144.73;34.61
33288;BME280;19657;50.452;30.372;2023-06-04T20:39:58;84699.59;;;-144.73;34.66
33288;BME280;19657;50.452;30.372;2023-06-04T20:42:45;84711.45;;;-144.73;34.86
33288;BME280;19657;50.452;30.372;2023-06-04T20:45:34;84702.75;;;-144.73;34.95
33288;BME280;19657;50.452;30.372;2023-06-04T20:48:20;84725.68;;;-144.73;35.11
33288;BME280;19657;50.452;30.372;2023-06-04T20:51:06;84722.91;;;-144.73;35.18
33288;BME280;19657;50.452;30.372;2023-06-04T20:53:52;84726.86;;;-144.73;35.26
33288;BME280;19657;50.452;30.372;2023-06-04T20:56:38;84742.68;;;-144.73;35.39
33288;BME280;19657;50.452;30.372;2023-06-04T20:59:25;84741.89;;;-144.73;35.53
33288;BME280;19657;50.452;30.372;2023-06-04T21:02:25;85798.05;;;-144.73;36.34
33288;BME280;19657;50.452;30.372;2023-06-04T21:05:11;84742.67;;;-144.73;36.17
33288;BME280;19657;50.452;30.372;2023-06-04T21:07:58;84753.74;;;-144.73;35.94
33288;BME280;19657;50.452;30.372;2023-06-04T21:10:47;84760.86;;;-144.73;36.06
33288;BME280;19657;50.452;30.372;2023-06-04T21:13:33;84769.16;;;-144.73;36.23
33288;BME280;19657;50.452;30.372;2023-06-04T21:16:20;84787.73;;;-144.73;36.39
33288;BME280;19657;50.452;30.372;2023-06-04T21:19:06;84783.79;;;-144.73;36.47
33288;BME280;19657;50.452;30.372;2023-06-04T21:21:52;84793.67;;;-144.73;36.52
33288;BME280;19657;50.452;30.372;2023-06-04T21:24:38;84798.81;;;-144.73;36.66
33288;BME280;19657;50.452;30.372;2023-06-04T21:27:24;84798.41;;;-144.73;36.73
33288;BME280;19657;50.452;30.372;2023-06-04T21:30:11;84807.11;;;-144.73;36.78
33288;BME280;19657;50.452;30.372;2023-06-04T21:32:57;84817.79;;;-144.73;36.89
33288;BME280;19657;50.452;30.372;2023-06-04T21:35:43;84814.23;;;-144.73;36.90
33288;BME280;19657;50.452;30.372;2023-06-04T21:38:29;84804.35;;;-144.73;36.54
33288;BME280;19657;50.452;30.372;2023-06-04T21:41:15;84818.98;;;-144.73;36.61
33288;BME280;19657;50.452;30.372;2023-06-04T21:44:01;84800.80;;;-144.73;36.42
33288;BME280;19657;50.452;30.372;2023-06-04T21:46:47;84814.63;;;-144.73;36.40
33288;BME280;19657;50.452;30.372;2023-06-04T21:49:33;84824.51;;;-144.73;36.41
33288;BME280;19657;50.452;30.372;2023-06-04T21:52:19;84828.46;;;-144.73;36.51
33288;BME280;19657;50.452;30.372;2023-06-04T21:55:10;84850.99;;;-144.73;36.52
33288;BME280;19657;50.452;30.372;2023-06-04T21:57:56;84843.88;;;-144.73;36.57
33288;BME280;19657;50.452;30.372;2023-06-04T22:00:43;84853.77;;;-144.73;36.64
33288;BME280;19657;50.452;30.372;2023-06-04T22:03:29;84862.06;;;-144.73;36.69
33288;BME280;19657;50.452;30.372;2023-06-04T22:06:16;84869.17;;;-144.73;36.93
33288;BME280;19657;50.452;30.372;2023-06-04T22:09:03;84858.11;;;-144.73;37.01
33288;BME280;19657;50.452;30.372;2023-06-04T22:11:49;84870.77;;;-144.73;37.23
33288;BME280;19657;50.452;30.372;2023-06-04T22:14:35;84885.39;;;-144.73;37.45
33288;BME280;19657;50.452;30.372;2023-06-04T22:17:23;84884.20;;;-144.73;37.44
33288;BME280;19657;50.452;30.372;2023-06-04T22:20:09;84879.46;;;-144.73;37.56
33288;BME280;19657;50.452;30.372;2023-06-04T22:22:56;84898.44;;;-144.73;37.83
33288;BME280;19657;50.452;30.372;2023-06-04T22:25:43;84901.60;;;-144.73;38.48
33288;BME280;19657;50.452;30.372;2023-06-04T22:28:28;84901.98;;;-144.73;39.59
33288;BME280;19657;50.452;30.372;2023-06-04T22:31:14;84917.02;;;-144.73;40.01
33288;BME280;19657;50.452;30.372;2023-06-04T22:34:01;84924.13;;;-144.73;40.24
33288;BME280;19657;50.452;30.372;2023-06-04T22:36:47;84924.13;;;-144.73;40.59
33288;BME280;19657;50.452;30.372;2023-06-04T22:39:33;84939.15;;;-144.73;40.46
33288;BME280;19657;50.452;30.372;2023-06-04T22:42:19;84937.96;;;-144.73;39.70
33288;BME280;19657;50.452;30.372;2023-06-04T22:45:07;84926.11;;;-144.73;38.85
33288;BME280;19657;50.452;30.372;2023-06-04T22:47:53;84918.99;;;-144.73;38.78
33288;BME280;19657;50.452;30.372;2023-06-04T22:50:39;84912.66;;;-144.73;38.37
33288;BME280;19657;50.452;30.372;2023-06-04T22:53:26;84906.73;;;-144.73;38.31
33288;BME280;19657;50.452;30.372;2023-06-04T22:56:15;84896.06;;;-144.73;38.10
33288;BME280;19657;50.452;30.372;2023-06-04T22:59:00;84902.39;;;-144.73;37.91
33288;BME280;19657;50.452;30.372;2023-06-04T23:01:48;84901.20;;;-144.73;37.43
33288;BME280;19657;50.452;30.372;2023-06-04T23:04:34;84896.06;;;-144.73;37.52
33288;BME280;19657;50.452;30.372;2023-06-04T23:07:20;84887.36;;;-144.73;37.59
33288;BME280;19657;50.452;30.372;2023-06-04T23:10:06;84906.34;;;-144.73;37.81
33288;BME280;19657;50.452;30.372;2023-06-04T23:12:53;84886.17;;;-144.73;38.06
33288;BME280;19657;50.452;30.372;2023-06-04T23:15:39;84896.45;;;-144.73;37.75
33288;BME280;19657;50.452;30.372;2023-06-04T23:18:25;84883.41;;;-144.73;37.08
33288;BME280;19657;50.452;30.372;2023-06-04T23:21:11;84909.11;;;-144.73;36.77
33288;BME280;19657;50.452;30.372;2023-06-04T23:23:57;84905.16;;;-144.73;36.58
33288;BME280;19657;50.452;30.372;2023-06-04T23:26:43;84907.92;;;-144.73;36.78
33288;BME280;19657;50.452;30.372;2023-06-04T23:29:29;84910.69;;;-144.73;36.35
33288;BME280;19657;50.452;30.372;2023-06-04T23:32:15;84894.48;;;-144.73;36.03
33288;BME280;19657;50.452;30.372;2023-06-04T23:35:01;84908.71;;;-144.73;35.87
33288;BME280;19657;50.452;30.372;2023-06-04T23:37:47;84908.71;;;-144.73;35.79
33288;BME280;19657;50.452;30.372;2023-06-04T23:40:33;84901.20;;;-144.73;35.84
33288;BME280;19657;50.452;30.372;2023-06-04T23:43:19;84911.09;;;-144.73;35.79
33288;BME280;19657;50.452;30.372;2023-06-04T23:46:05;84908.31;;;-144.73;35.82
33288;BME280;19657;50.452;30.372;2023-06-04T23:48:51;84901.98;;;-144.73;35.75
33288;BME280;19657;50.452;30.372;2023-06-04T23:51:37;84901.59;;;-144.73;35.78
33288;BME280;19657;50.452;30.372;2023-06-04T23:54:23;84918.59;;;-144.73;35.89
33288;BME280;19657;50.452;30.372;2023-06-04T23:57:09;84924.92;;;-144.73;35.94
33288;BME280;19657;50.452;30.372;2023-06-04T23:59:55;84936.38;;;-144.73;35.97
